Time;durP1;ratioP1;P1;durP2;ratioP2;P2;SDS_P1;SDS_P2;PMS_P1;PMS_P2;Temp;Humidity;BMP_temperature;BMP_pressure;BME280_temperature;BME280_humidity;BME280_pressure;Samples;Min_cycle;Max_cycle;Signal;HPM_P1;HPM_P2
2023/10/10 00:00:54;;;;;;;9.88;7.15;;;13.40;99.90;;;;;;6239454;23;20004;-77
2023/10/10 00:03:42;;;;;;;9.70;6.85;;;13.40;99.90;;;;;;6238488;23;20067;-77
2023/10/10 00:06:28;;;;;;;8.95;6.30;;;13.40;99.90;;;;;;6240533;23;20393;-78
2023/10/10 00:09:14;;;;;;;9.68;7.03;;;13.40;99.90;;;;;;6239674;23;20436;-78
2023/10/10 00:11:59;;;;;;;8.85;6.57;;;13.40;99.90;;;;;;6240261;23;20307;-78
2023/10/10 00:14:50;;;;;;;7.97;5.90;;;13.50;99.90;;;;;;6244498;23;20008;-76
2023/10/10 00:17:37;;;;;;;8.43;6.68;;;13.50;99.90;;;;;;6254791;23;20027;-78
2023/10/10 00:20:24;;;;;;;8.18;6.40;;;13.40;99.90;;;;;;6242475;23;20320;-79
2023/10/10 00:23:11;;;;;;;10.25;6.60;;;13.50;99.90;;;;;;6240409;23;20468;-79
2023/10/10 00:25:57;;;;;;;10.80;6.63;;;13.50;99.90;;;;;;6238493;23;20295;-78
2023/10/10 00:28:45;;;;;;;9.60;6.72;;;13.50;99.90;;;;;;6239499;23;20503;-78
2023/10/10 00:31:31;;;;;;;8.63;6.45;;;13.50;99.90;;;;;;6241027;23;20097;-79
2023/10/10 00:34:38;;;;;;;9.40;6.70;;;13.50;99.90;;;;;;6239627;23;20086;-78
2023/10/10 00:37:29;;;;;;;8.35;6.30;;;13.50;99.90;;;;;;6239375;23;20012;-77
2023/10/10 00:40:27;;;;;;;8.48;6.18;;;13.50;99.90;;;;;;6238647;23;20047;-78
2023/10/10 00:43:24;;;;;;;8.23;6.18;;;13.50;99.90;;;;;;6239125;23;20074;-78
2023/10/10 00:46:11;;;;;;;8.88;6.35;;;13.50;99.90;;;;;;6238955;23;20086;-79
2023/10/10 00:49:01;;;;;;;9.82;6.10;;;13.50;99.90;;;;;;6238534;23;20431;-79
2023/10/10 00:51:47;;;;;;;10.25;7.43;;;13.50;99.90;;;;;;6238122;23;20357;-79
2023/10/10 00:54:43;;;;;;;7.63;6.05;;;13.50;99.90;;;;;;6240540;23;20087;-80
2023/10/10 00:57:35;;;;;;;8.85;6.03;;;13.50;99.90;;;;;;6238407;22;20031;-79
2023/10/10 01:00:24;;;;;;;10.65;6.97;;;13.50;99.90;;;;;;6238039;23;20012;-79
2023/10/10 01:03:22;;;;;;;8.88;6.22;;;13.60;99.90;;;;;;6238829;23;20027;-80
2023/10/10 01:06:31;;;;;;;7.47;5.93;;;13.50;99.90;;;;;;6239119;23;20004;-80
2023/10/10 01:09:21;;;;;;;9.25;6.07;;;13.60;99.90;;;;;;6240401;23;20008;-80
2023/10/10 01:12:09;;;;;;;8.45;5.50;;;13.60;99.90;;;;;;6239032;23;20031;-80
2023/10/10 01:14:57;;;;;;;7.78;6.15;;;13.60;99.90;;;;;;6239967;23;20008;-81
2023/10/10 01:17:44;;;;;;;9.82;5.85;;;13.60;99.90;;;;;;6239082;23;20008;-81
2023/10/10 01:20:34;;;;;;;7.95;5.78;;;13.60;99.90;;;;;;6239254;23;20382;-82
2023/10/10 01:23:26;;;;;;;8.02;6.00;;;13.60;99.90;;;;;;6240478;23;20027;-80
2023/10/10 01:26:12;;;;;;;9.15;5.57;;;13.60;99.90;;;;;;6239111;23;20339;-83
2023/10/10 01:29:12;;;;;;;6.13;4.68;;;13.60;99.90;;;;;;6237968;23;20020;-82
2023/10/10 01:31:58;;;;;;;5.57;4.35;;;13.60;99.90;;;;;;6238931;23;20066;-81
2023/10/10 01:34:45;;;;;;;7.25;4.90;;;13.60;99.90;;;;;;6239028;23;20016;-82
2023/10/10 01:37:35;;;;;;;7.65;4.90;;;13.60;99.90;;;;;;6239268;23;20008;-81
2023/10/10 01:40:23;;;;;;;6.15;4.88;;;13.70;99.90;;;;;;6240159;23;20070;-80
2023/10/10 01:43:10;;;;;;;6.90;4.50;;;13.60;99.90;;;;;;6241000;23;20095;-82
2023/10/10 01:46:29;;;;;;;6.55;4.80;;;13.60;99.90;;;;;;6239332;23;20008;-83
2023/10/10 01:49:20;;;;;;;5.45;4.35;;;13.60;99.90;;;;;;6238594;23;20469;-83
2023/10/10 01:52:12;;;;;;;5.00;4.45;;;13.60;99.90;;;;;;6237803;23;20012;-79
2023/10/10 01:55:00;;;;;;;6.35;3.97;;;13.60;99.90;;;;;;6237521;23;20012;-80
2023/10/10 01:57:47;;;;;;;5.90;4.63;;;13.60;99.90;;;;;;6239702;23;20024;-82
2023/10/10 02:00:34;;;;;;;4.90;3.80;;;13.60;99.90;;;;;;6238378;23;20012;-82
2023/10/10 02:03:21;;;;;;;5.35;4.25;;;13.70;99.90;;;;;;6240257;23;20016;-82
2023/10/10 02:06:13;;;;;;;5.95;4.15;;;13.70;99.90;;;;;;6240019;23;20035;-83
2023/10/10 02:09:11;;;;;;;5.30;3.67;;;13.70;99.90;;;;;;6241064;23;20468;-83
2023/10/10 02:12:04;;;;;;;6.03;3.90;;;13.70;99.90;;;;;;6239577;23;20350;-79
2023/10/10 02:14:54;;;;;;;5.63;4.22;;;13.70;99.90;;;;;;6240941;23;20043;-78
2023/10/10 02:17:50;;;;;;;6.10;4.07;;;13.70;99.90;;;;;;6239384;23;20069;-79
2023/10/10 02:23:31;;;;;;;6.18;3.75;;;13.70;99.90;;;;;;6240907;23;20020;-77
2023/10/10 02:26:23;;;;;;;6.40;4.28;;;13.70;99.90;;;;;;6240603;23;20004;-77
2023/10/10 02:29:33;;;;;;;6.28;4.50;;;13.70;99.90;;;;;;6240671;23;20012;-78
2023/10/10 02:32:19;;;;;;;5.32;4.13;;;13.70;99.90;;;;;;6241370;23;20082;-76
2023/10/10 02:35:26;;;;;;;6.30;4.18;;;13.70;99.90;;;;;;6241276;23;20087;-77
2023/10/10 02:38:12;;;;;;;5.82;3.97;;;13.70;99.90;;;;;;6240114;23;20516;-78
2023/10/10 02:44:09;;;;;;;5.50;4.03;;;13.70;99.90;;;;;;6239970;23;20016;-76
2023/10/10 02:46:55;;;;;;;6.57;4.28;;;13.70;99.90;;;;;;6240390;23;20091;-78
2023/10/10 02:49:42;;;;;;;6.63;4.40;;;13.70;99.90;;;;;;6239458;23;20012;-78
2023/10/10 02:52:28;;;;;;;6.78;4.50;;;13.80;99.90;;;;;;6240380;23;20008;-78
2023/10/10 02:55:22;;;;;;;5.53;4.00;;;13.80;99.90;;;;;;6239606;22;20383;-78
2023/10/10 02:58:20;;;;;;;7.32;5.22;;;13.70;99.90;;;;;;6219521;23;20031;-78
2023/10/10 03:01:18;;;;;;;6.65;4.57;;;13.80;99.90;;;;;;6239262;23;20323;-78
2023/10/10 03:04:08;;;;;;;6.05;4.47;;;13.80;99.90;;;;;;6239297;23;20019;-78
2023/10/10 03:06:53;;;;;;;6.85;4.55;;;13.80;99.90;;;;;;6241240;23;20015;-78
2023/10/10 03:10:21;;;;;;;6.32;4.18;;;13.80;99.90;;;;;;6240058;23;20122;-78
2023/10/10 03:12:50;;;;;;;;;;;13.80;99.90;;;;;;6240199;23;20012;-77
2023/10/10 03:15:37;;;;;;;6.63;4.30;;;13.80;99.90;;;;;;6240963;23;19903;-75
2023/10/10 03:18:29;;;;;;;6.80;4.63;;;13.80;99.90;;;;;;6241353;23;20012;-79
2023/10/10 03:21:24;;;;;;;5.80;4.03;;;13.80;99.90;;;;;;6240543;23;20018;-78
2023/10/10 03:33:09;;;;;;;7.60;4.97;;;13.90;99.90;;;;;;6240061;23;20016;-78
2023/10/10 03:39:24;;;;;;;6.30;4.90;;;13.90;99.90;;;;;;6129503;23;20016;-78
2023/10/10 05:23:48;;;;;;;9.73;6.90;;;14.50;99.90;;;;;;6238936;23;20672;-77
2023/10/10 05:26:34;;;;;;;10.18;6.93;;;14.60;99.90;;;;;;6238287;23;20405;-77
2023/10/10 05:29:20;;;;;;;9.15;6.47;;;14.60;99.90;;;;;;6238344;23;20018;-78
2023/10/10 05:32:08;;;;;;;8.20;5.85;;;14.60;99.90;;;;;;6239090;23;20012;-75
2023/10/10 05:34:54;;;;;;;12.60;7.10;;;14.60;99.90;;;;;;6237307;23;20016;-77
2023/10/10 05:37:40;;;;;;;11.43;6.90;;;14.60;99.90;;;;;;6238793;23;20045;-76
2023/10/10 05:40:27;;;;;;;10.15;6.63;;;14.60;99.90;;;;;;6237312;23;20451;-78
2023/10/10 05:43:16;;;;;;;9.07;6.07;;;14.70;99.90;;;;;;6235371;23;20058;-69
2023/10/10 05:46:05;;;;;;;9.82;7.20;;;14.70;99.90;;;;;;6217094;23;20108;-71
2023/10/10 05:48:51;;;;;;;9.98;6.78;;;14.70;99.90;;;;;;6235978;23;20056;-70
2023/10/10 05:51:37;;;;;;;12.38;6.70;;;14.70;99.90;;;;;;6237719;23;20114;-68
2023/10/10 05:54:23;;;;;;;9.65;6.20;;;14.80;99.90;;;;;;6237412;23;20400;-70
2023/10/10 05:57:10;;;;;;;10.52;7.28;;;14.80;99.90;;;;;;6237452;22;20020;-70
2023/10/10 05:59:58;;;;;;;11.32;7.22;;;14.80;99.90;;;;;;6237412;23;20399;-70
2023/10/10 06:02:47;;;;;;;12.20;6.97;;;14.80;99.90;;;;;;6237237;23;20020;-69
2023/10/10 06:05:33;;;;;;;9.80;6.88;;;14.80;99.90;;;;;;6238432;23;20023;-69
2023/10/10 06:08:20;;;;;;;9.93;7.25;;;14.90;99.90;;;;;;6237752;23;20015;-71
2023/10/10 06:11:06;;;;;;;10.43;7.13;;;14.90;99.90;;;;;;6238161;23;20381;-70
2023/10/10 06:13:53;;;;;;;8.32;5.85;;;15.00;99.90;;;;;;6237860;23;20339;-69
2023/10/10 06:16:39;;;;;;;9.35;7.13;;;15.00;99.90;;;;;;6238961;23;20012;-69
2023/10/10 06:19:25;;;;;;;11.05;7.32;;;15.00;99.90;;;;;;6236908;23;20012;-71
2023/10/10 06:22:15;;;;;;;12.00;6.18;;;15.10;99.90;;;;;;6238192;23;20343;-65
2023/10/10 06:25:01;;;;;;;9.00;5.78;;;15.10;99.90;;;;;;6238210;23;20011;-69
2023/10/10 06:27:54;;;;;;;7.60;5.35;;;15.20;99.90;;;;;;6240767;23;20047;-73
2023/10/10 06:30:43;;;;;;;9.00;6.10;;;15.20;99.90;;;;;;6238866;23;20074;-78
2023/10/10 06:33:29;;;;;;;8.75;5.68;;;15.30;99.90;;;;;;6245101;23;20012;-76
2023/10/10 06:41:54;;;;;;;9.15;6.07;;;15.50;99.90;;;;;;6238866;23;20016;-76
2023/10/10 06:44:40;;;;;;;10.40;5.78;;;15.60;99.90;;;;;;6236485;23;20434;-78
2023/10/10 06:47:28;;;;;;;9.90;5.20;;;15.60;99.90;;;;;;6236851;23;20346;-77
2023/10/10 06:50:14;;;;;;;7.00;4.70;;;15.70;99.90;;;;;;6237339;23;20661;-75
2023/10/10 06:53:03;;;;;;;7.05;4.57;;;15.70;99.90;;;;;;6241030;23;20035;-76
2023/10/10 06:55:49;;;;;;;9.65;4.45;;;15.80;99.90;;;;;;6238047;22;20012;-73
2023/10/10 06:58:35;;;;;;;6.30;4.45;;;15.90;99.90;;;;;;6238855;23;20051;-74
2023/10/10 07:01:21;;;;;;;6.47;4.20;;;15.90;99.90;;;;;;6240708;23;20014;-73
2023/10/10 07:04:11;;;;;;;7.97;5.15;;;16.00;99.90;;;;;;6239691;23;20020;-74
2023/10/10 07:07:00;;;;;;;7.90;4.57;;;16.10;99.90;;;;;;6241114;23;20020;-73
2023/10/10 07:09:46;;;;;;;6.85;4.00;;;16.10;99.90;;;;;;6242023;23;20014;-73
2023/10/10 07:12:33;;;;;;;7.03;4.28;;;16.10;99.90;;;;;;6239413;22;20370;-73
2023/10/10 07:15:23;;;;;;;8.18;4.00;;;16.20;99.90;;;;;;6219319;23;20004;-72
2023/10/10 07:18:15;;;;;;;7.18;3.78;;;16.20;99.90;;;;;;6240635;23;20109;-71
2023/10/10 07:21:08;;;;;;;8.50;4.22;;;16.30;99.90;;;;;;6238939;23;20087;-70
2023/10/10 07:24:05;;;;;;;6.43;3.90;;;16.30;99.90;;;;;;6238040;23;20028;-71
2023/10/10 07:27:11;;;;;;;8.23;4.20;;;16.40;99.90;;;;;;6240022;23;20008;-70
2023/10/10 07:32:50;;;;;;;27.23;7.05;;;16.40;99.90;;;;;;6242142;23;19906;-70
2023/10/10 07:35:36;;;;;;;30.40;7.15;;;16.50;99.90;;;;;;6239350;23;20087;-69
2023/10/10 07:38:28;;;;;;;48.80;12.07;;;16.50;99.90;;;;;;6241776;23;20008;-69
2023/10/10 07:41:19;;;;;;;24.17;7.32;;;16.60;99.90;;;;;;6240199;23;20012;-70
2023/10/10 07:44:05;;;;;;;51.20;10.43;;;16.60;99.90;;;;;;6240627;23;20023;-69
2023/10/10 07:49:59;;;;;;;35.13;9.93;;;16.60;99.90;;;;;;6240389;23;20033;-70
2023/10/10 07:52:45;;;;;;;85.65;18.83;;;16.70;99.90;;;;;;6241175;23;20411;-69
2023/10/10 07:55:51;;;;;;;22.52;7.47;;;16.70;99.90;;;;;;6242146;22;20012;-69
2023/10/10 07:58:43;;;;;;;40.15;7.78;;;16.70;99.90;;;;;;6238753;23;20023;-69
2023/10/10 08:01:29;;;;;;;25.70;8.45;;;16.70;99.90;;;;;;6239278;23;20012;-69
2023/10/10 08:04:15;;;;;;;43.28;10.30;;;16.80;99.90;;;;;;6239243;23;20019;-70
2023/10/10 08:07:03;;;;;;;17.15;7.60;;;16.80;99.90;;;;;;6238897;23;20254;-70
2023/10/10 08:09:55;;;;;;;61.60;14.02;;;16.90;99.90;;;;;;6240338;23;20016;-70
2023/10/10 08:12:42;;;;;;;30.13;9.02;;;16.90;99.90;;;;;;6239879;23;20078;-70
2023/10/10 08:15:28;;;;;;;39.40;10.10;;;17.00;99.90;;;;;;6238498;23;20370;-69
2023/10/10 08:18:39;;;;;;;17.38;7.05;;;17.00;99.90;;;;;;6239511;23;20032;-69
2023/10/10 08:21:22;;;;;;;22.73;8.13;;;17.10;99.90;;;;;;6239438;23;20016;-69
2023/10/10 08:24:12;;;;;;;21.23;6.90;;;17.10;99.90;;;;;;6238622;23;20016;-69
2023/10/10 08:27:01;;;;;;;24.33;6.95;;;17.10;99.90;;;;;;6238372;23;20082;-69
2023/10/10 08:29:49;;;;;;;24.80;7.25;;;17.20;99.90;;;;;;6241025;23;20450;-69
2023/10/10 08:32:35;;;;;;;34.00;8.55;;;17.30;99.90;;;;;;6239121;23;20027;-69
2023/10/10 08:35:23;;;;;;;27.13;6.93;;;17.40;99.90;;;;;;6236576;23;20023;-69
2023/10/10 08:38:19;;;;;;;19.30;6.40;;;17.40;99.90;;;;;;6240608;23;20082;-70
2023/10/10 08:41:08;;;;;;;17.27;6.68;;;17.40;99.90;;;;;;6241548;23;20012;-70
2023/10/10 08:43:58;;;;;;;18.15;5.78;;;17.40;99.90;;;;;;6238116;23;20586;-70
2023/10/10 08:46:48;;;;;;;16.63;5.68;;;17.50;99.90;;;;;;6241102;23;20016;-70
2023/10/10 08:49:35;;;;;;;9.55;4.45;;;17.50;99.90;;;;;;6236697;23;20012;-70
2023/10/10 08:52:22;;;;;;;7.05;3.30;;;17.60;99.90;;;;;;6239184;23;20465;-69
2023/10/10 08:55:10;;;;;;;8.15;3.88;;;17.60;99.90;;;;;;6239237;23;20015;-70
2023/10/10 08:57:56;;;;;;;6.78;3.83;;;17.60;99.90;;;;;;6237348;23;20035;-70
2023/10/10 09:00:43;;;;;;;13.32;3.38;;;17.60;99.90;;;;;;6239527;23;20355;-71
2023/10/10 09:03:34;;;;;;;20.30;5.07;;;17.70;99.90;;;;;;6217957;23;20127;-70
2023/10/10 09:06:20;;;;;;;7.22;3.28;;;17.60;99.90;;;;;;6238315;23;20015;-70
2023/10/10 09:09:32;;;;;;;7.80;4.13;;;17.70;99.90;;;;;;6236426;23;20091;-71
2023/10/10 09:12:14;;;;;;;5.90;3.50;;;17.60;99.90;;;;;;6238277;23;20035;-72
2023/10/10 09:15:16;;;;;;;9.20;3.78;;;17.60;99.90;;;;;;6238093;23;20455;-69
2023/10/10 09:18:22;;;;;;;10.70;4.05;;;17.60;99.90;;;;;;6238393;23;20580;-71
2023/10/10 09:21:22;;;;;;;11.70;3.35;;;17.70;99.90;;;;;;6239915;23;20018;-68
2023/10/10 09:24:28;;;;;;;6.70;3.30;;;17.70;99.90;;;;;;6237362;23;20016;-65
2023/10/10 09:27:28;;;;;;;8.20;3.13;;;17.70;99.90;;;;;;6237773;23;20020;-69
2023/10/10 09:30:15;;;;;;;9.98;3.10;;;17.70;99.90;;;;;;6237255;23;20550;-69
2023/10/10 09:36:26;;;;;;;6.97;2.85;;;17.80;99.90;;;;;;6148120;23;20013;-71
2023/10/10 09:39:26;;;;;;;5.85;3.63;;;17.80;99.90;;;;;;6148257;23;20092;-71
2023/10/10 09:42:44;;;;;;;13.88;3.47;;;17.80;99.90;;;;;;6149836;23;20474;-71
2023/10/10 09:45:52;;;;;;;5.20;2.90;;;17.80;99.90;;;;;;6147174;23;20010;-70
2023/10/10 09:54:54;;;;;;;4.75;2.30;;;17.90;99.90;;;;;;6176970;23;20009;-70
2023/10/10 09:57:58;;;;;;;12.05;4.10;;;17.90;99.90;;;;;;6176057;23;20072;-71
2023/10/10 10:06:34;;;;;;;5.85;2.25;;;18.00;99.90;;;;;;6177490;23;20461;-70
2023/10/10 10:09:31;;;;;;;3.25;2.08;;;18.10;99.90;;;;;;6177090;23;20005;-69
2023/10/10 10:12:50;;;;;;;2.90;2.22;;;18.10;99.90;;;;;;6224879;23;20012;-70
2023/10/10 10:15:48;;;;;;;5.25;2.55;;;18.10;99.90;;;;;;6238409;23;20012;-70
2023/10/10 10:18:47;;;;;;;5.05;2.50;;;18.20;99.90;;;;;;6239783;23;20074;-70
2023/10/10 10:21:51;;;;;;;3.80;1.90;;;18.30;99.90;;;;;;6238108;23;20012;-70
2023/10/10 10:24:45;;;;;;;5.13;2.10;;;18.20;99.90;;;;;;6238967;23;20024;-69
2023/10/10 10:27:34;;;;;;;3.80;2.00;;;18.20;99.90;;;;;;6242379;23;20023;-70
2023/10/10 10:33:09;;;;;;;8.27;3.22;;;18.30;99.90;;;;;;6241211;23;20016;-70
2023/10/10 10:36:05;;;;;;;6.07;2.70;;;18.30;99.90;;;;;;6240641;23;20012;-71
2023/10/10 10:42:00;;;;;;;3.70;2.53;;;18.30;99.90;;;;;;6239536;23;20012;-71
2023/10/10 10:44:58;;;;;;;5.07;2.30;;;18.30;99.90;;;;;;6236055;23;20019;-71
2023/10/10 10:47:54;;;;;;;3.85;2.65;;;18.30;99.90;;;;;;6241571;23;20012;-72
2023/10/10 10:50:40;;;;;;;4.68;2.85;;;18.30;99.90;;;;;;6239990;23;20038;-72
2023/10/10 10:53:38;;;;;;;5.20;3.22;;;18.40;99.90;;;;;;6239607;23;20048;-71
2023/10/10 11:02:15;;;;;;;;;;;18.50;99.90;;;;;;6240280;23;19900;-71
2023/10/10 11:05:07;;;;;;;;;;;18.50;99.90;;;;;;6237558;23;19904;-72
2023/10/10 11:08:06;;;;;;;3.85;2.83;;;18.50;99.90;;;;;;6240090;23;19907;-72
2023/10/10 11:10:53;;;;;;;5.82;2.10;;;18.50;99.90;;;;;;6239352;23;20031;-71
2023/10/10 11:13:39;;;;;;;3.15;2.40;;;18.50;99.90;;;;;;6240894;23;20014;-70
2023/10/10 11:16:37;;;;;;;5.15;2.30;;;18.50;99.90;;;;;;6240314;23;20083;-70
2023/10/10 11:22:39;;;;;;;5.88;2.50;;;18.60;99.90;;;;;;6239529;23;20020;-71
2023/10/10 11:25:41;;;;;;;4.65;2.22;;;18.60;99.90;;;;;;6241250;23;20043;-71
2023/10/10 11:28:37;;;;;;;3.63;1.98;;;18.70;99.90;;;;;;6241316;23;20008;-71
2023/10/10 11:31:23;;;;;;;4.55;2.50;;;18.70;99.90;;;;;;6241389;23;20087;-71
2023/10/10 11:34:26;;;;;;;6.25;2.90;;;18.70;99.90;;;;;;6239653;23;20446;-71
2023/10/10 11:37:23;;;;;;;6.18;3.50;;;18.70;99.90;;;;;;6238428;23;20008;-71
2023/10/10 11:40:20;;;;;;;4.63;2.55;;;18.70;99.90;;;;;;6216344;23;20449;-71
2023/10/10 11:43:17;;;;;;;4.72;2.30;;;18.60;99.90;;;;;;6240582;23;20020;-70
2023/10/10 11:46:03;;;;;;;3.70;2.53;;;18.70;99.90;;;;;;6238601;23;20079;-71
2023/10/10 11:48:49;;;;;;;3.90;2.10;;;18.60;99.90;;;;;;6241611;23;20011;-70
2023/10/10 11:51:35;;;;;;;3.75;2.35;;;18.60;99.90;;;;;;6239243;23;20042;-71
2023/10/10 11:54:25;;;;;;;5.10;1.98;;;18.60;99.90;;;;;;6239538;23;20430;-71
2023/10/10 11:57:15;;;;;;;3.58;2.20;;;18.60;99.90;;;;;;6238242;22;20024;-70
2023/10/10 12:00:07;;;;;;;5.75;2.50;;;18.70;99.90;;;;;;6239290;23;20342;-71
2023/10/10 12:02:55;;;;;;;3.92;2.35;;;18.70;99.90;;;;;;6238585;23;20365;-71
2023/10/10 12:05:47;;;;;;;5.07;2.55;;;18.80;99.90;;;;;;6237871;23;20015;-71
2023/10/10 12:08:36;;;;;;;8.77;2.13;;;18.80;99.90;;;;;;6238919;23;20016;-72
2023/10/10 12:11:22;;;;;;;3.92;2.00;;;18.90;99.90;;;;;;6239084;23;20082;-70
2023/10/10 12:14:11;;;;;;;2.72;2.00;;;19.00;99.90;;;;;;6237920;23;20454;-70
2023/10/10 12:16:58;;;;;;;4.55;2.05;;;19.00;99.90;;;;;;6240108;23;20011;-69
2023/10/10 12:19:45;;;;;;;3.90;2.53;;;19.10;99.90;;;;;;6239555;23;20132;-69
2023/10/10 12:22:31;;;;;;;4.22;1.95;;;19.20;99.90;;;;;;6236290;23;20026;-69
2023/10/10 12:25:17;;;;;;;5.20;2.30;;;19.30;99.90;;;;;;6238228;23;20091;-70
2023/10/10 12:28:03;;;;;;;4.35;2.05;;;19.30;99.90;;;;;;6239506;23;20342;-69
2023/10/10 12:30:49;;;;;;;2.88;2.00;;;19.30;99.90;;;;;;6237707;23;20008;-69
2023/10/10 12:33:38;;;;;;;4.95;1.90;;;19.30;99.90;;;;;;6239117;23;20095;-69
2023/10/10 12:36:28;;;;;;;13.77;3.47;;;19.30;99.90;;;;;;6239266;23;20055;-70
2023/10/10 12:39:15;;;;;;;7.88;4.53;;;19.30;99.90;;;;;;6239846;23;20011;-70
2023/10/10 12:42:01;;;;;;;12.32;6.05;;;19.30;99.90;;;;;;6239302;23;20434;-70
2023/10/10 12:44:47;;;;;;;6.03;3.58;;;19.30;99.90;;;;;;6239206;23;20389;-70
2023/10/10 12:47:33;;;;;;;10.40;4.05;;;19.30;99.90;;;;;;6240273;23;20114;-70
2023/10/10 12:50:26;;;;;;;10.13;2.75;;;19.30;99.90;;;;;;6239799;23;20170;-70
2023/10/10 12:53:15;;;;;;;6.22;2.33;;;19.30;99.90;;;;;;6241872;23;20350;-70
2023/10/10 12:56:01;;;;;;;3.90;1.85;;;19.30;99.90;;;;;;6240343;22;20012;-70
2023/10/10 12:58:57;;;;;;;5.53;2.28;;;19.30;99.90;;;;;;6239249;23;20107;-70
2023/10/10 13:01:43;;;;;;;4.03;2.30;;;19.40;99.90;;;;;;6239958;23;20008;-69
2023/10/10 13:04:32;;;;;;;3.58;1.90;;;19.40;99.90;;;;;;6240005;23;20346;-70
2023/10/10 13:07:18;;;;;;;3.45;1.70;;;19.40;99.90;;;;;;6240034;23;20012;-68
2023/10/10 13:10:10;;;;;;;5.57;1.88;;;19.40;99.90;;;;;;6238758;23;20059;-69
2023/10/10 13:12:56;;;;;;;6.47;2.20;;;19.40;99.90;;;;;;6239213;23;20114;-70
2023/10/10 13:15:50;;;;;;;5.55;1.90;;;19.40;99.90;;;;;;6238993;23;20066;-70
2023/10/10 15:48:56;;;;;;;6.22;2.60;;;18.70;99.90;;;;;;6235947;23;20024;-67
2023/10/10 15:51:44;;;;;;;7.10;2.75;;;18.70;99.90;;;;;;6240415;23;20628;-67
2023/10/10 15:54:33;;;;;;;5.22;2.60;;;18.70;99.90;;;;;;6240673;23;20070;-68
2023/10/10 15:57:26;;;;;;;4.78;2.92;;;18.70;99.90;;;;;;6240609;22;20011;-68
2023/10/10 16:00:15;;;;;;;7.28;3.03;;;18.60;99.90;;;;;;6239884;23;20103;-68
2023/10/10 16:03:06;;;;;;;7.20;2.72;;;18.50;99.90;;;;;;6239602;23;20044;-68
2023/10/10 16:05:52;;;;;;;6.00;2.60;;;18.40;99.90;;;;;;6240213;23;20460;-68
2023/10/10 16:08:38;;;;;;;6.55;2.88;;;18.40;99.90;;;;;;6241751;23;20008;-68
2023/10/10 16:11:31;;;;;;;5.32;2.53;;;18.30;99.90;;;;;;6240803;23;20083;-67
2023/10/10 16:14:18;;;;;;;6.85;3.30;;;18.20;99.90;;;;;;6239832;23;20091;-67
2023/10/10 16:17:04;;;;;;;5.38;2.70;;;18.20;99.90;;;;;;6240359;23;20388;-68
2023/10/10 16:19:50;;;;;;;7.47;3.20;;;18.10;99.90;;;;;;6238867;23;20044;-68
2023/10/10 16:22:35;;;;;;;5.70;2.90;;;18.10;99.90;;;;;;6239060;23;20024;-67
2023/10/10 16:25:23;;;;;;;4.90;2.72;;;18.10;99.90;;;;;;6239715;23;20167;-68
2023/10/10 16:28:09;;;;;;;8.27;2.80;;;18.10;99.90;;;;;;6239705;23;20038;-67
2023/10/10 16:30:55;;;;;;;5.15;2.67;;;17.90;99.90;;;;;;6238864;23;20095;-67
2023/10/10 16:33:41;;;;;;;7.72;2.92;;;17.90;99.90;;;;;;6238806;23;20012;-68
2023/10/10 16:36:28;;;;;;;8.77;3.88;;;17.80;99.90;;;;;;6239036;23;20450;-67
2023/10/10 16:39:14;;;;;;;4.80;3.22;;;17.80;99.90;;;;;;6238991;23;20023;-67
2023/10/10 16:42:00;;;;;;;7.03;3.13;;;17.70;99.90;;;;;;6238524;23;20319;-68
2023/10/10 16:44:46;;;;;;;6.00;2.90;;;17.70;99.90;;;;;;6240495;23;20012;-67
2023/10/10 16:47:32;;;;;;;5.40;3.30;;;17.60;99.90;;;;;;6238640;23;20012;-66
2023/10/10 16:50:18;;;;;;;7.88;3.30;;;17.60;99.90;;;;;;6236886;23;20016;-65
2023/10/10 16:53:04;;;;;;;7.70;2.85;;;17.60;99.90;;;;;;6237436;23;20004;-66
2023/10/10 16:55:53;;;;;;;4.75;3.03;;;17.60;99.90;;;;;;6238385;22;20012;-68
2023/10/10 16:58:41;;;;;;;5.60;3.00;;;17.60;99.90;;;;;;6237680;23;20004;-69
2023/10/10 17:01:28;;;;;;;7.50;3.55;;;17.60;99.90;;;;;;6239126;23;20012;-69
2023/10/10 17:04:14;;;;;;;5.45;3.53;;;17.60;99.90;;;;;;6240000;23;20019;-69
2023/10/10 17:07:00;;;;;;;5.20;3.60;;;17.60;99.90;;;;;;6239277;23;20517;-69
2023/10/10 17:09:46;;;;;;;6.05;3.53;;;17.50;99.90;;;;;;6238314;23;20385;-68
2023/10/10 17:12:31;;;;;;;7.10;4.03;;;17.50;99.90;;;;;;6239481;23;20008;-68
2023/10/10 17:15:20;;;;;;;7.40;3.92;;;17.50;99.90;;;;;;6238490;23;20083;-69
2023/10/10 17:18:08;;;;;;;6.93;3.85;;;17.50;99.90;;;;;;6236729;23;20027;-68
2023/10/10 17:21:00;;;;;;;6.78;3.50;;;17.40;99.90;;;;;;6239057;23;20514;-67
2023/10/10 17:23:47;;;;;;;6.13;3.38;;;17.40;99.90;;;;;;6237567;23;20016;-71
2023/10/10 17:26:34;;;;;;;6.47;3.78;;;17.40;99.90;;;;;;6239985;23;20008;-67
2023/10/10 17:29:23;;;;;;;4.80;3.25;;;17.40;99.90;;;;;;6237608;23;20103;-67
2023/10/10 17:32:09;;;;;;;7.13;3.80;;;17.40;99.90;;;;;;6238529;23;20008;-67
2023/10/10 17:34:55;;;;;;;6.78;4.15;;;17.40;99.90;;;;;;6237263;23;20020;-66
2023/10/10 17:37:41;;;;;;;4.80;3.63;;;17.30;99.90;;;;;;6238092;23;20448;-66
2023/10/10 17:40:28;;;;;;;6.63;3.63;;;17.40;99.90;;;;;;6237344;23;20016;-67
2023/10/10 17:43:14;;;;;;;8.43;3.63;;;17.40;99.90;;;;;;6239191;23;20024;-67
2023/10/10 17:46:00;;;;;;;5.32;3.38;;;17.40;99.90;;;;;;6236572;23;20005;-68
2023/10/10 17:48:57;;;;;;;7.00;4.13;;;17.40;99.90;;;;;;6237654;23;20024;-67
2023/10/10 17:51:44;;;;;;;6.68;4.03;;;17.40;99.90;;;;;;6237431;23;20012;-66
2023/10/10 17:54:30;;;;;;;6.32;3.97;;;17.30;99.90;;;;;;6236882;23;20012;-67
2023/10/10 17:57:17;;;;;;;6.35;4.43;;;17.40;99.90;;;;;;6237600;22;20705;-67
2023/10/10 18:00:13;;;;;;;7.03;4.55;;;17.40;99.90;;;;;;6237724;23;20019;-66
2023/10/10 18:03:00;;;;;;;7.97;4.28;;;17.40;99.90;;;;;;6237872;23;20366;-67
2023/10/10 18:05:46;;;;;;;6.95;4.65;;;17.40;99.90;;;;;;6238177;23;20015;-67
2023/10/10 18:08:34;;;;;;;7.28;4.28;;;17.40;99.90;;;;;;6237461;23;20411;-67
2023/10/10 18:11:20;;;;;;;7.35;5.10;;;17.40;99.90;;;;;;6238953;23;20008;-66
2023/10/10 18:14:07;;;;;;;6.93;4.90;;;17.40;99.90;;;;;;6237138;23;20488;-66
2023/10/10 18:16:53;;;;;;;6.53;4.90;;;17.40;99.90;;;;;;6239482;23;20008;-66
2023/10/10 18:19:41;;;;;;;6.65;4.88;;;17.40;99.90;;;;;;6239962;23;20468;-67
2023/10/10 18:22:29;;;;;;;7.53;4.65;;;17.40;99.90;;;;;;6236301;23;20020;-67
2023/10/10 18:25:15;;;;;;;8.32;5.38;;;17.40;99.90;;;;;;6237269;23;20123;-67
2023/10/10 18:28:01;;;;;;;9.32;6.22;;;17.40;99.90;;;;;;6237040;23;20403;-66
2023/10/10 18:30:47;;;;;;;7.90;5.82;;;17.40;99.90;;;;;;6236257;23;20051;-67
2023/10/10 18:33:33;;;;;;;7.82;5.15;;;17.40;99.90;;;;;;6236733;23;20389;-67
2023/10/10 18:36:20;;;;;;;10.45;5.07;;;17.40;99.90;;;;;;6235835;23;20051;-67
2023/10/10 18:39:12;;;;;;;5.97;4.43;;;17.40;99.90;;;;;;6238507;23;20015;-67
2023/10/10 18:41:58;;;;;;;8.02;4.63;;;17.40;99.90;;;;;;6239735;23;20016;-67
2023/10/10 18:44:45;;;;;;;6.85;4.82;;;17.40;99.90;;;;;;6237498;23;20047;-67
2023/10/10 18:47:31;;;;;;;7.38;4.65;;;17.40;99.90;;;;;;6241691;23;20022;-67
2023/10/10 18:50:19;;;;;;;6.55;5.07;;;17.40;99.90;;;;;;6241932;23;20023;-67
2023/10/10 18:53:04;;;;;;;9.20;5.50;;;17.40;99.90;;;;;;6238924;23;20009;-67
2023/10/10 18:55:51;;;;;;;10.90;6.22;;;17.40;99.90;;;;;;6239022;22;20044;-67
2023/10/10 18:58:38;;;;;;;6.95;4.78;;;17.40;99.90;;;;;;6240324;23;20398;-67
2023/10/10 19:01:24;;;;;;;7.60;4.85;;;17.40;99.90;;;;;;6241020;23;20008;-67
2023/10/10 19:04:10;;;;;;;9.23;4.75;;;17.40;99.90;;;;;;6239727;23;20070;-66
2023/10/10 19:06:56;;;;;;;7.63;5.28;;;17.30;99.90;;;;;;6239959;23;20012;-66
2023/10/10 19:09:43;;;;;;;10.00;5.40;;;17.30;99.90;;;;;;6239906;23;20012;-66
2023/10/10 19:12:29;;;;;;;8.23;5.50;;;17.30;99.90;;;;;;6240093;23;20016;-67
2023/10/10 19:15:16;;;;;;;7.45;5.38;;;17.30;99.90;;;;;;6237889;23;20444;-67
2023/10/10 19:18:03;;;;;;;7.93;5.47;;;17.30;99.90;;;;;;6240020;23;20337;-67
2023/10/10 19:20:49;;;;;;;7.72;5.43;;;17.30;99.90;;;;;;6240482;23;20099;-67
2023/10/10 19:23:36;;;;;;;7.22;5.53;;;17.20;99.90;;;;;;6239350;23;20430;-66
2023/10/10 19:26:23;;;;;;;9.93;5.55;;;17.20;99.90;;;;;;6241353;23;20008;-65
2023/10/10 19:29:09;;;;;;;7.47;5.50;;;17.20;99.90;;;;;;6240158;23;20396;-67
2023/10/10 19:31:56;;;;;;;9.40;5.50;;;17.10;99.90;;;;;;6239285;23;20044;-65
2023/10/10 19:34:42;;;;;;;8.75;5.55;;;17.10;99.90;;;;;;6238283;23;20008;-67
2023/10/10 19:37:28;;;;;;;9.32;6.05;;;17.10;99.90;;;;;;6238844;23;20019;-66
2023/10/10 19:40:19;;;;;;;9.93;6.00;;;17.10;99.90;;;;;;6239992;23;20012;-67
2023/10/10 19:43:05;;;;;;;8.80;5.97;;;17.10;99.90;;;;;;6240002;23;20016;-66
2023/10/10 19:45:51;;;;;;;8.77;5.95;;;17.10;99.90;;;;;;6239775;23;20019;-66
2023/10/10 19:48:39;;;;;;;9.10;6.50;;;17.00;99.90;;;;;;6239030;23;20335;-66
2023/10/10 19:51:25;;;;;;;8.43;6.18;;;17.00;99.90;;;;;;6239491;23;20307;-66
2023/10/10 19:54:12;;;;;;;9.25;6.07;;;17.10;99.90;;;;;;6240083;23;20012;-66